Terminal Aerodrome Forecast
Issued by NWS

Home | Current Version | Previous Version | Text Only | Print | Product List | Glossary On
Versions: 1 2 3 4 5 6 7 8 9 10 11 12 13 14 15 16 17 18 19 20 21
000
FTUS42 KKEY 270857 AAA
TAFMTH
TAF AMD
KMTH 270857Z 2709/2806 08008KT P6SM FEW022
     FM271500 10010G16KT P6SM FEW022
     FM280100 09008KT P6SM SCT022 BKN050=

USA.gov is the U.S. government's official web portal to all federal, state and local government web resources and services.